Weather at Cambridge / Reid's Field

Public forecast

Using degrees Celsius for public forecast. Weather courtesy of forecast.io.

Closest aviation weather report (METAR) to Cambridge / Reid's Field

Report is more than 6 hours old.

Closest report is Waterloo Airport, 6.5 nm (12.0 km) W.

2022/11/14 15:00 (retrieved 2 years ago)

CYKF 141500Z AUTO VRB02KT 9SM FEW042 SCT210 00/M05 A3035 RMK SLP294

Closest aviation forecast (TAF) to Cambridge / Reid's Field

Forecast is more than 12 hours old.

Closest forecast is Waterloo Airport, 6.5 nm (12.0 km) W.

2023/02/22 20:42 (retrieved 1 year ago)

TAF TAF CYKF 221940Z 2220/2308 07015G25KT 3/4SM -SN VV008 TEMPO 2220/2222 3SM -SN SCT008 BKN015 OVC030 FM222200 07020G30KT 1/2SM SN VV006 TEMPO 2222/2224 3/8SM SN BLSN VV004 FM230000 07020G30KT 1/4SM +SN BLSN VV004 TEMPO 2300/2302 1/2SM SNPL VV006 FM230200 07020G30KT 1 1/2SM -PLSN BLSN OVC008 FM230600 07020G30KT 6SM -PL BR SCT008 OVC010 PROB30 2306/2308 P6SM -FZRA RMK FCST BASED ON AUTO OBS NXT FCST BY 230200Z